Time;durP1;ratioP1;P1;durP2;ratioP2;P2;SDS_P1;SDS_P2;PMS_P1;PMS_P2;Temp;Humidity;BMP_temperature;BMP_pressure;BME280_temperature;BME280_humidity;BME280_pressure;Samples;Min_cycle;Max_cycle;Signal;HPM_P1;HPM_P2
2021/11/01 00:00:36;;;;;;;1.83;1.60;;;;;;;13.96;75.58;95432.44;5110244;28;20268;-65
2021/11/01 00:03:01;;;;;;;2.80;1.87;;;;;;;14.11;74.93;95420.91;5090788;28;20244;-65
2021/11/01 00:05:27;;;;;;;1.70;1.60;;;;;;;14.04;75.25;95420.50;5092859;28;20621;-64
2021/11/01 00:07:53;;;;;;;2.23;2.00;;;;;;;14.07;75.30;95414.66;5099538;28;20271;-64
2021/11/01 00:10:20;;;;;;;2.20;2.00;;;;;;;14.00;75.57;95428.16;5094357;28;20214;-65
2021/11/01 00:12:46;;;;;;;3.87;2.20;;;;;;;13.98;75.81;95426.88;5104028;28;20644;-65
2021/11/01 00:15:14;;;;;;;1.87;1.77;;;;;;;14.01;75.73;95424.47;5111745;28;20187;-65
2021/11/01 00:17:39;;;;;;;2.50;2.17;;;;;;;14.02;75.79;95417.34;5093247;28;20191;-64
2021/11/01 00:20:06;;;;;;;4.17;1.80;;;;;;;13.94;76.17;95412.69;5074931;28;20181;-65
2021/11/01 00:22:33;;;;;;;1.87;1.77;;;;;;;14.05;75.85;95414.91;5095971;28;20253;-65
2021/11/01 00:25:00;;;;;;;3.53;2.03;;;;;;;14.03;76.22;95419.72;5112914;28;20278;-64
2021/11/01 00:27:25;;;;;;;1.73;1.63;;;;;;;14.01;76.61;95423.69;5108808;28;20195;-65
2021/11/01 00:29:51;;;;;;;1.60;1.50;;;;;;;13.98;77.65;95398.69;5092803;28;20251;-65
2021/11/01 00:32:16;;;;;;;2.90;1.80;;;;;;;14.07;77.51;95402.25;5105699;28;20244;-64
2021/11/01 00:34:42;;;;;;;1.63;1.53;;;;;;;14.10;77.76;95408.81;5092715;28;20562;-65
2021/11/01 00:37:08;;;;;;;1.70;1.60;;;;;;;14.18;77.82;95408.19;5091472;28;20181;-65
2021/11/01 00:39:34;;;;;;;2.27;1.80;;;;;;;14.22;78.01;95401.28;5112473;28;20184;-65
2021/11/01 00:42:00;;;;;;;1.70;1.60;;;;;;;14.28;77.50;95408.06;5112578;28;20275;-65
2021/11/01 00:44:25;;;;;;;1.70;1.60;;;;;;;14.30;77.34;95405.16;5093934;28;20342;-65
2021/11/01 00:46:51;;;;;;;1.60;1.50;;;;;;;14.20;77.77;95415.81;5092881;28;20204;-65
2021/11/01 00:49:17;;;;;;;2.53;1.40;;;;;;;14.11;78.14;95402.47;5090785;28;20192;-64
2021/11/01 00:51:44;;;;;;;1.90;1.80;;;;;;;14.20;77.44;95394.75;5094736;28;20519;-65
2021/11/01 00:54:12;;;;;;;2.00;1.80;;;;;;;14.32;77.24;95395.13;5099126;28;20196;-67
2021/11/01 00:56:38;;;;;;;1.90;1.80;;;;;;;14.22;77.96;95390.75;5091064;28;20555;-65
2021/11/01 00:59:04;;;;;;;1.30;1.30;;;;;;;14.22;78.68;95389.94;5104961;28;20596;-65
2021/11/01 01:01:32;;;;;;;2.23;1.60;;;;;;;14.45;78.75;95379.38;5104956;28;20181;-65
2021/11/01 01:03:59;;;;;;;1.27;1.20;;;;;;;14.44;80.49;95366.50;5087085;28;20231;-65
2021/11/01 01:06:26;;;;;;;1.33;1.23;;;;;;;14.44;82.19;95369.13;5092984;28;20211;-65
2021/11/01 01:08:52;;;;;;;1.03;1.03;;;;;;;14.59;83.63;95370.78;5094199;28;20206;-65
2021/11/01 01:11:18;;;;;;;1.27;1.10;;;;;;;14.78;83.92;95363.63;5090940;28;20722;-65
2021/11/01 01:13:44;;;;;;;0.93;0.93;;;;;;;14.87;84.28;95369.81;5104726;28;20663;-64
2021/11/01 01:18:45;;;;;;;1.10;1.10;;;;;;;15.03;84.23;95386.19;5097789;28;20175;-65
2021/11/01 01:22:13;;;;;;;1.80;1.50;;;;;;;15.06;81.44;95378.47;5094388;28;20206;-65
2021/11/01 01:23:57;;;;;;;1.60;1.50;;;;;;;14.96;80.71;95374.16;5112059;28;20207;-65
2021/11/01 01:26:23;;;;;;;1.40;1.30;;;;;;;14.72;81.85;95370.81;5094364;28;20184;-64
2021/11/01 01:28:49;;;;;;;1.37;1.37;;;;;;;14.69;81.91;95363.50;5108466;28;20639;-67
2021/11/01 01:31:16;;;;;;;1.50;1.40;;;;;;;14.60;82.91;95364.44;5094837;28;20212;-65
2021/11/01 01:33:42;;;;;;;1.57;1.47;;;;;;;14.67;82.71;95370.13;5097654;28;20179;-65
2021/11/01 01:36:08;;;;;;;1.40;1.30;;;;;;;14.70;83.17;95378.25;5097650;28;20187;-65
2021/11/01 01:38:35;;;;;;;2.03;1.10;;;;;;;14.78;83.11;95377.59;5115585;28;20176;-65
2021/11/01 01:41:18;;;;;;;1.57;1.47;;;;;;;14.87;82.84;95389.06;5097738;28;20329;-65
2021/11/01 01:43:49;;;;;;;1.70;1.60;;;;;;;14.80;82.58;95383.38;5097640;28;20210;-65
2021/11/01 01:46:15;;;;;;;1.63;1.30;;;;;;;14.67;82.23;95388.56;5095931;28;20185;-65
2021/11/01 01:48:41;;;;;;;3.23;1.50;;;;;;;14.59;82.23;95392.66;5097654;28;20190;-66
2021/11/01 01:51:09;;;;;;;1.60;1.50;;;;;;;14.56;83.06;95395.84;5108050;28;20188;-65
2021/11/01 01:53:36;;;;;;;1.60;1.50;;;;;;;14.65;83.40;95402.06;5095427;28;20196;-65
2021/11/01 01:56:03;;;;;;;1.17;1.10;;;;;;;14.70;84.17;95399.34;5080813;28;20517;-65
2021/11/01 01:58:32;;;;;;;2.07;1.27;;;;;;;14.66;84.96;95402.81;5097413;28;20183;-68
2021/11/01 02:03:24;;;;;;;1.50;1.40;;;;;;;14.64;86.26;95410.25;5094809;28;20691;-66
2021/11/01 02:06:40;;;;;;;1.50;1.40;;;;;;;14.69;86.73;95418.09;5113221;28;20263;-66
2021/11/01 02:09:09;;;;;;;1.40;1.30;;;;;;;14.58;87.90;95422.72;5032806;28;20560;-65
2021/11/01 02:11:53;;;;;;;1.40;1.30;;;;;;;14.21;89.97;95425.31;5087270;28;20208;-67
2021/11/01 02:14:23;;;;;;;1.63;1.53;;;;;;;13.87;92.58;95422.78;5097102;28;20194;-65
2021/11/01 02:16:50;;;;;;;2.77;1.53;;;;;;;13.78;92.96;95416.56;5097196;28;20271;-65
2021/11/01 02:19:18;;;;;;;1.10;1.10;;;;;;;13.44;90.88;95421.91;5111618;28;20188;-65
2021/11/01 02:21:58;;;;;;;2.73;1.30;;;;;;;13.41;90.20;95427.72;5114402;28;20176;-65
2021/11/01 02:24:30;;;;;;;2.10;0.90;;;;;;;13.25;87.97;95422.59;5094930;28;20469;-65
2021/11/01 02:26:56;;;;;;;0.90;0.90;;;;;;;13.08;88.53;95418.78;5113061;28;20423;-66
2021/11/01 02:29:23;;;;;;;0.60;0.60;;;;;;;12.99;88.23;95423.81;5093402;28;20198;-66
2021/11/01 02:31:51;;;;;;;1.07;0.70;;;;;;;12.89;89.02;95437.06;5098351;28;20184;-65
2021/11/01 02:34:18;;;;;;;1.53;0.70;;;;;;;12.55;89.85;95433.59;5093182;28;20187;-65
2021/11/01 02:36:47;;;;;;;0.70;0.67;;;;;;;12.39;91.55;95435.50;5094580;28;20183;-64
2021/11/01 02:39:12;;;;;;;2.15;1.00;;;;;;;12.37;92.46;95429.75;5100239;28;20430;-64
2021/11/01 02:41:41;;;;;;;1.13;0.60;;;;;;;12.15;93.64;95430.09;5113174;28;20412;-64
2021/11/01 02:44:08;;;;;;;2.20;0.63;;;;;;;11.84;95.38;95432.06;5092726;28;20197;-64
2021/11/01 02:46:36;;;;;;;1.30;0.70;;;;;;;11.61;97.29;95424.75;5097085;28;20192;-64
2021/11/01 02:49:02;;;;;;;1.13;0.80;;;;;;;11.64;99.10;95429.47;5114501;28;20279;-64
2021/11/01 02:51:29;;;;;;;0.97;0.70;;;;;;;11.60;99.16;95436.28;5115166;28;20196;-64
2021/11/01 02:53:57;;;;;;;1.70;1.00;;;;;;;11.32;99.92;95436.84;5095773;28;20683;-64
2021/11/01 02:56:24;;;;;;;1.17;0.90;;;;;;;11.21;100.00;95439.47;5078027;28;20395;-64
2021/11/01 02:58:50;;;;;;;1.70;1.10;;;;;;;11.19;100.00;95433.72;5085642;28;20383;-64
2021/11/01 03:01:18;;;;;;;0.70;0.70;;;;;;;11.14;100.00;95433.72;5094997;28;20187;-64
2021/11/01 03:03:44;;;;;;;2.00;1.20;;;;;;;11.13;100.00;95441.84;5092321;28;20498;-64
2021/11/01 03:06:18;;;;;;;0.80;0.80;;;;;;;11.17;99.12;95454.19;5091942;28;20192;-65
2021/11/01 03:08:44;;;;;;;1.03;0.83;;;;;;;10.96;99.91;95462.31;5092247;28;20185;-64
2021/11/01 03:11:11;;;;;;;0.90;0.90;;;;;;;11.06;98.57;95455.22;5112442;28;20194;-64
2021/11/01 03:13:37;;;;;;;1.85;1.00;;;;;;;10.99;100.00;95459.94;5091429;28;20409;-64
2021/11/01 03:16:05;;;;;;;1.38;1.08;;;;;;;10.98;100.00;95460.97;5109550;28;20388;-64
2021/11/01 03:18:47;;;;;;;2.10;0.63;;;;;;;11.26;99.04;95460.47;5095738;28;20253;-64
2021/11/01 03:21:17;;;;;;;0.70;0.70;;;;;;;11.12;100.00;95461.25;5114023;28;20176;-64
2021/11/01 03:23:47;;;;;;;1.33;0.83;;;;;;;10.81;100.00;95461.22;5094146;28;20204;-64
2021/11/01 03:26:18;;;;;;;2.50;0.90;;;;;;;10.72;100.00;95462.00;5111675;28;20236;-63
2021/11/01 03:28:48;;;;;;;0.70;0.70;;;;;;;10.68;100.00;95474.84;5095178;28;20229;-64
2021/11/01 03:31:15;;;;;;;3.27;1.10;;;;;;;10.51;100.00;95483.97;5098548;28;20176;-64
2021/11/01 03:33:42;;;;;;;3.07;1.00;;;;;;;10.56;100.00;95483.97;5094299;28;20267;-65
2021/11/01 03:36:09;;;;;;;1.23;0.97;;;;;;;10.32;100.00;95483.63;5093704;28;20536;-64
2021/11/01 03:38:38;;;;;;;1.10;1.10;;;;;;;10.10;100.00;95482.97;5093460;28;20223;-65
2021/11/01 03:41:10;;;;;;;1.20;1.10;;;;;;;10.22;100.00;95489.63;5092233;28;20180;-64
2021/11/01 03:43:45;;;;;;;1.57;1.00;;;;;;;10.29;100.00;95505.09;5079093;28;20199;-64
2021/11/01 03:46:11;;;;;;;2.73;1.00;;;;;;;10.18;100.00;95514.75;5095520;28;20236;-65
2021/11/01 03:48:43;;;;;;;1.33;1.00;;;;;;;10.22;100.00;95513.19;5091667;28;20258;-62
2021/11/01 03:51:14;;;;;;;1.40;1.30;;;;;;;10.03;100.00;95515.41;5093193;28;20176;-63
2021/11/01 03:53:41;;;;;;;1.23;1.13;;;;;;;10.11;100.00;95516.78;5110568;28;20203;-65
2021/11/01 03:56:07;;;;;;;2.77;1.20;;;;;;;10.19;100.00;95531.25;5113745;28;20184;-65
2021/11/01 03:58:34;;;;;;;2.23;1.20;;;;;;;10.14;100.00;95545.03;5113007;28;20191;-62
2021/11/01 04:00:59;;;;;;;2.83;1.20;;;;;;;10.28;100.00;95550.66;5113137;28;20270;-65
2021/11/01 04:03:26;;;;;;;1.33;1.07;;;;;;;10.16;100.00;95550.84;5091255;28;20228;-64
2021/11/01 04:05:58;;;;;;;5.17;1.93;;;;;;;10.16;100.00;95556.09;5092892;28;20221;-64
2021/11/01 04:08:24;;;;;;;2.97;1.20;;;;;;;10.31;100.00;95553.53;5091583;28;20173;-64
2021/11/01 04:10:49;;;;;;;1.63;1.30;;;;;;;10.34;100.00;95550.44;5093076;28;20577;-65
2021/11/01 04:13:16;;;;;;;4.23;1.50;;;;;;;10.27;100.00;95562.16;5105996;28;20191;-65
2021/11/01 04:15:47;;;;;;;1.20;1.20;;;;;;;10.28;100.00;95572.41;5095119;28;20252;-64
2021/11/01 04:18:23;;;;;;;3.40;1.23;;;;;;;10.20;100.00;95587.78;5091987;28;20169;-64
2021/11/01 04:23:15;;;;;;;2.87;1.33;;;;;;;10.18;100.00;95602.97;5109719;28;20210;-66
2021/11/01 04:25:40;;;;;;;1.93;1.70;;;;;;;10.25;100.00;95603.56;5112485;28;20204;-65
2021/11/01 04:28:06;;;;;;;2.13;1.50;;;;;;;10.47;100.00;95590.31;5112252;28;20277;-64
2021/11/01 04:30:56;;;;;;;1.50;1.40;;;;;;;10.26;100.00;95579.72;5095182;28;20191;-63
2021/11/01 04:33:23;;;;;;;1.90;1.40;;;;;;;10.28;100.00;95575.03;5110718;28;20192;-63
2021/11/01 04:35:49;;;;;;;1.63;1.53;;;;;;;10.17;100.00;95586.47;5113114;28;20180;-66
2021/11/01 04:38:43;;;;;;;2.10;1.20;;;;;;;10.33;100.00;95577.66;5112754;28;20934;-64
2021/11/01 04:55:05;;;;;;;3.70;1.60;;;;;;;10.45;100.00;95601.03;5031498;28;20507;-64
2021/11/01 04:57:31;;;;;;;1.50;1.40;;;;;;;10.53;100.00;95602.41;5081278;28;20271;-64
2021/11/01 04:59:56;;;;;;;1.70;1.60;;;;;;;10.41;100.00;95597.34;5092623;28;20276;-64
2021/11/01 05:02:23;;;;;;;2.07;1.37;;;;;;;10.29;100.00;95600.16;5105098;28;20180;-64
2021/11/01 05:04:49;;;;;;;5.07;1.57;;;;;;;10.31;100.00;95600.69;5116876;28;20207;-64
2021/11/01 05:07:15;;;;;;;1.57;1.43;;;;;;;10.26;100.00;95611.13;5112031;28;20222;-64
2021/11/01 05:09:48;;;;;;;1.23;1.20;;;;;;;10.25;100.00;95612.16;5096141;28;20176;-63
2021/11/01 05:20:24;;;;;;;1.97;1.47;;;;;;;10.29;100.00;95608.03;5108670;28;20267;-63
2021/11/01 05:23:04;;;;;;;2.37;1.47;;;;;;;10.22;100.00;95615.31;5099457;28;20169;-64
2021/11/01 05:25:56;;;;;;;2.00;1.70;;;;;;;10.19;100.00;95613.22;5095624;28;20279;-64
2021/11/01 05:30:58;;;;;;;2.07;1.20;;;;;;;10.12;100.00;95619.66;5115853;28;20180;-63
2021/11/01 05:36:05;;;;;;;4.23;1.37;;;;;;;10.14;100.00;95626.22;5115904;28;20266;-63
2021/11/01 05:38:30;;;;;;;1.33;1.20;;;;;;;10.36;100.00;95629.56;5095697;28;20267;-63
2021/11/01 05:40:55;;;;;;;1.83;1.40;;;;;;;10.39;100.00;95621.16;5094181;28;20724;-63
2021/11/01 05:43:21;;;;;;;2.60;1.47;;;;;;;10.32;100.00;95627.66;5094150;28;20275;-63
2021/11/01 05:45:46;;;;;;;2.00;1.90;;;;;;;10.16;100.00;95626.78;5095366;28;20188;-63
2021/11/01 05:48:12;;;;;;;4.83;2.60;;;;;;;10.28;100.00;95623.97;5097491;28;20321;-63
2021/11/01 05:50:38;;;;;;;3.40;2.73;;;;;;;10.22;100.00;95627.59;5094058;28;20540;-63
2021/11/01 05:53:07;;;;;;;3.13;2.90;;;;;;;10.13;100.00;95629.91;5095715;28;20237;-63
2021/11/01 06:03:03;;;;;;;3.50;2.87;;;;;;;10.06;100.00;95628.53;5109503;28;20224;-63
2021/11/01 06:13:24;;;;;;;2.77;2.57;;;;;;;10.21;100.00;95626.03;5107082;28;20274;-65
2021/11/01 06:13:31;;;;;;;2.37;2.27;;;;;;;10.29;100.00;95623.75;5094136;28;20184;-63
2021/11/01 06:16:01;;;;;;;1.90;1.80;;;;;;;10.17;100.00;95625.75;5111404;28;20643;-63
2021/11/01 06:18:35;;;;;;;1.80;1.70;;;;;;;10.28;100.00;95632.63;5079674;28;20180;-63
2021/11/01 06:21:05;;;;;;;1.40;1.30;;;;;;;10.19;100.00;95631.53;5096879;28;20183;-63
2021/11/01 06:23:31;;;;;;;1.50;1.50;;;;;;;10.12;100.00;95630.94;5114972;28;20203;-63
2021/11/01 06:25:57;;;;;;;3.17;1.63;;;;;;;10.18;100.00;95623.94;5098244;28;20190;-63
2021/11/01 06:28:23;;;;;;;1.97;1.30;;;;;;;10.06;100.00;95626.69;5094868;28;20192;-63
2021/11/01 06:30:55;;;;;;;1.40;1.30;;;;;;;10.02;100.00;95626.41;5102310;28;20581;-63
2021/11/01 06:44:23;;;;;;;1.43;1.03;;;;;;;10.09;100.00;95631.41;5099640;28;20213;-65
2021/11/01 07:16:44;;;;;;;2.33;0.90;;;;;;;9.63;100.00;95659.06;5114312;28;20176;-64
2021/11/01 08:29:45;;;;;;;1.13;1.07;;;;;;;9.79;100.00;95689.56;5097708;28;20633;-64
2021/11/01 08:36:00;;;;;;;1.43;1.27;;;;;;;9.89;100.00;95692.25;5057116;28;20615;-65
2021/11/01 08:48:28;;;;;;;1.27;1.00;;;;;;;9.70;100.00;95695.47;5116979;28;20188;-65
2021/11/01 09:19:56;;;;;;;1.03;0.93;;;;;;;10.28;100.00;95660.66;5116570;28;20202;-67
2021/11/01 09:28:19;;;;;;;1.37;1.10;;;;;;;10.08;100.00;95668.34;5095558;28;20272;-68
2021/11/01 09:35:45;;;;;;;5.23;1.30;;;;;;;10.06;100.00;95675.63;5097208;28;20253;-68
2021/11/01 09:36:17;;;;;;;2.03;1.27;;;;;;;10.26;100.00;95696.75;5096261;28;20219;-66
2021/11/01 09:38:58;;;;;;;1.30;1.20;;;;;;;10.23;100.00;95687.59;5096576;28;20176;-66
2021/11/01 09:41:24;;;;;;;1.83;1.40;;;;;;;10.26;100.00;95686.28;5096339;28;20176;-67
2021/11/01 09:43:58;;;;;;;1.10;1.10;;;;;;;10.49;100.00;95680.69;5093014;28;20216;-66
2021/11/01 09:46:25;;;;;;;1.43;1.37;;;;;;;10.57;100.00;95687.28;5095644;28;20176;-66
2021/11/01 09:49:05;;;;;;;1.63;1.53;;;;;;;10.52;100.00;95687.25;5094868;28;20222;-66
2021/11/01 09:51:30;;;;;;;1.60;1.50;;;;;;;10.56;100.00;95680.47;5095579;28;20181;-66
2021/11/01 09:53:56;;;;;;;3.80;1.57;;;;;;;10.73;100.00;95676.63;5100465;28;20271;-66
2021/11/01 09:56:32;;;;;;;1.70;1.60;;;;;;;10.68;100.00;95674.00;5097567;28;20655;-66
2021/11/01 09:59:12;;;;;;;2.10;1.93;;;;;;;10.78;100.00;95679.28;5114669;28;20168;-66
2021/11/01 10:01:46;;;;;;;1.77;1.67;;;;;;;10.70;100.00;95700.72;5082676;28;20557;-67
2021/11/01 10:04:31;;;;;;;1.40;1.30;;;;;;;10.66;100.00;95699.66;5108697;28;20233;-65
2021/11/01 10:07:26;;;;;;;1.43;1.10;;;;;;;10.49;100.00;95698.22;5088823;28;20194;-66
2021/11/01 10:10:06;;;;;;;1.27;1.17;;;;;;;10.63;100.00;95712.50;5097377;28;20177;-65
2021/11/01 10:12:35;;;;;;;4.57;1.10;;;;;;;10.60;100.00;95716.38;5115690;28;20172;-66
2021/11/01 10:18:00;;;;;;;0.90;0.90;;;;;;;10.38;100.00;95713.88;5095240;28;20184;-66
2021/11/01 10:20:28;;;;;;;0.90;0.90;;;;;;;10.52;100.00;95702.97;5094024;28;20273;-66
2021/11/01 10:22:54;;;;;;;1.27;1.00;;;;;;;10.50;100.00;95694.56;5096570;28;20192;-66
2021/11/01 10:25:22;;;;;;;1.47;1.13;;;;;;;10.39;100.00;95691.91;5096129;28;20212;-64
2021/11/01 10:27:59;;;;;;;0.73;0.67;;;;;;;10.56;100.00;95689.13;5093195;28;20258;-65
2021/11/01 10:30:29;;;;;;;0.70;0.70;;;;;;;10.54;100.00;95672.84;5096062;28;20180;-65
2021/11/01 10:32:56;;;;;;;1.23;0.90;;;;;;;10.71;99.98;95680.53;5095086;28;20249;-65
2021/11/01 10:35:31;;;;;;;1.43;0.90;;;;;;;10.47;100.00;95680.16;5096650;28;20584;-65
2021/11/01 10:37:59;;;;;;;0.87;0.80;;;;;;;10.39;100.00;95667.53;5095908;28;20179;-66
2021/11/01 10:40:26;;;;;;;0.77;0.77;;;;;;;10.48;100.00;95675.72;5100822;28;20267;-66
2021/11/01 10:42:53;;;;;;;0.80;0.80;;;;;;;10.39;100.00;95678.78;5093093;28;20177;-65
2021/11/01 11:12:55;;;;;;;1.10;1.10;;;;;;;10.83;100.00;95676.69;5094301;28;20188;-65
2021/11/01 11:15:23;;;;;;;1.00;1.00;;;;;;;10.85;100.00;95686.94;5094039;28;20187;-65
2021/11/01 11:43:22;;;;;;;1.67;1.57;;;;;;;11.29;98.79;95611.28;5104573;28;20280;-64
2021/11/01 11:49:15;;;;;;;1.40;1.30;;;;;;;11.15;100.00;95621.47;5112984;28;20242;-64
2021/11/01 11:51:58;;;;;;;1.73;1.30;;;;;;;11.27;98.53;95636.97;5101490;28;20181;-64
2021/11/01 11:54:34;;;;;;;2.07;1.40;;;;;;;11.10;98.51;95631.97;5088750;28;20192;-64
2021/11/01 11:57:05;;;;;;;1.73;1.50;;;;;;;10.89;100.00;95624.28;5096188;28;20203;-64
2021/11/01 11:59:36;;;;;;;3.80;1.40;;;;;;;10.94;99.79;95619.84;5103773;28;20324;-64
2021/11/01 12:02:07;;;;;;;1.73;1.43;;;;;;;10.95;100.00;95625.88;5090739;28;20271;-66
2021/11/01 12:04:47;;;;;;;2.53;1.20;;;;;;;10.82;100.00;95620.06;5109669;28;20309;-64
2021/11/01 12:07:17;;;;;;;1.60;1.40;;;;;;;10.90;100.00;95618.00;5102551;28;20625;-64
2021/11/01 12:10:00;;;;;;;1.73;1.63;;;;;;;10.88;100.00;95620.06;5093036;28;20264;-64
2021/11/01 12:17:54;;;;;;;2.00;1.63;;;;;;;11.00;100.00;95602.28;5112831;28;20274;-63
2021/11/01 12:20:21;;;;;;;1.97;1.80;;;;;;;11.08;100.00;95596.56;5110447;28;20632;-64
2021/11/01 12:22:49;;;;;;;3.00;2.13;;;;;;;10.89;100.00;95609.34;5098580;28;20210;-64
2021/11/01 12:25:19;;;;;;;1.70;1.60;;;;;;;11.06;100.00;95622.25;5111957;28;20207;-64
2021/11/01 12:27:56;;;;;;;1.70;1.60;;;;;;;11.26;99.02;95612.59;5111673;28;20695;-65
2021/11/01 12:30:24;;;;;;;1.83;1.67;;;;;;;11.15;99.15;95613.59;5109161;28;20191;-63
2021/11/01 12:32:50;;;;;;;1.70;1.60;;;;;;;11.17;98.98;95598.41;5090037;28;20653;-64
2021/11/01 12:35:28;;;;;;;4.63;2.23;;;;;;;11.18;98.46;95596.59;5091976;28;20666;-63
2021/11/01 12:38:03;;;;;;;3.60;2.10;;;;;;;11.08;99.15;95593.94;5092035;28;20169;-64
2021/11/01 12:41:09;;;;;;;3.20;2.13;;;;;;;11.01;100.00;95593.38;5092036;28;20180;-64
2021/11/01 12:57:17;;;;;;;2.27;2.07;;;;;;;10.99;100.00;95561.38;5111576;28;20693;-63
2021/11/01 12:59:46;;;;;;;2.73;2.20;;;;;;;10.93;100.00;95546.69;5092373;28;20168;-63
2021/11/01 13:02:18;;;;;;;5.33;3.03;;;;;;;11.04;100.00;95549.06;5109944;28;20195;-63
2021/11/01 13:04:49;;;;;;;12.47;6.43;;;;;;;11.10;99.83;95542.00;5091822;28;20209;-63
2021/11/01 13:18:18;;;;;;;1.70;1.60;;;;;;;10.73;100.00;95529.09;5100397;28;20193;-63
2021/11/01 13:20:52;;;;;;;1.57;1.47;;;;;;;10.74;100.00;95543.78;5110634;28;20183;-66
2021/11/01 13:23:18;;;;;;;1.33;1.23;;;;;;;10.80;100.00;95540.13;5110571;28;20300;-64
2021/11/01 13:36:38;;;;;;;1.70;1.60;;;;;;;10.84;100.00;95544.59;5099345;28;20203;-67
2021/11/01 13:39:05;;;;;;;2.13;1.63;;;;;;;11.02;100.00;95545.94;5100077;28;20172;-67
2021/11/01 13:41:32;;;;;;;2.67;2.00;;;;;;;11.07;100.00;95542.53;5115601;28;20206;-66
2021/11/01 13:44:15;;;;;;;2.83;2.10;;;;;;;11.00;100.00;95545.41;5115339;28;20651;-65
2021/11/01 13:46:44;;;;;;;3.07;2.00;;;;;;;10.94;100.00;95549.06;5093079;28;20184;-66
2021/11/01 13:49:09;;;;;;;2.30;1.70;;;;;;;10.98;100.00;95549.34;5107968;28;20191;-66
2021/11/01 13:51:34;;;;;;;1.60;1.50;;;;;;;10.88;100.00;95542.22;5114604;28;20543;-66
2021/11/01 13:56:36;;;;;;;1.93;1.83;;;;;;;10.98;100.00;95542.25;5109793;28;20192;-63
2021/11/01 13:59:45;;;;;;;2.07;1.83;;;;;;;11.01;100.00;95536.50;5103557;28;20190;-64
2021/11/01 14:28:51;;;;;;;2.10;1.90;;;;;;;11.58;95.56;95528.41;5102712;28;20237;-65
2021/11/01 14:31:40;;;;;;;4.93;2.43;;;;;;;11.33;97.00;95517.91;5103556;28;20176;-65
2021/11/01 15:17:39;;;;;;;2.60;2.13;;;;;;;11.02;97.31;95503.22;5096065;28;20544;-65
2021/11/01 15:23:07;;;;;;;2.67;2.20;;;;;;;10.90;95.98;95489.56;5069468;28;20201;-64
2021/11/01 16:18:52;;;;;;;2.47;2.27;;;;;;;11.03;91.96;95496.91;5092322;28;20164;-64
2021/11/01 16:21:20;;;;;;;2.53;2.20;;;;;;;10.83;93.70;95501.06;5104438;28;20211;-64
2021/11/01 16:23:46;;;;;;;2.37;1.90;;;;;;;10.49;96.67;95499.94;5094051;28;20188;-65
2021/11/01 16:26:19;;;;;;;4.10;2.10;;;;;;;10.50;96.25;95503.34;5092305;28;20203;-65
2021/11/01 16:28:47;;;;;;;2.43;1.87;;;;;;;10.56;96.00;95497.88;5090953;28;20176;-65
2021/11/01 16:31:29;;;;;;;3.60;3.00;;;;;;;10.38;97.47;95506.97;5092381;28;20192;-65
2021/11/01 16:34:00;;;;;;;3.23;2.63;;;;;;;10.22;97.50;95515.81;5109553;28;20989;-66
2021/11/01 16:39:35;;;;;;;3.10;2.50;;;;;;;10.25;98.35;95514.53;5100005;28;20667;-65
2021/11/01 16:42:02;;;;;;;4.20;2.63;;;;;;;10.05;99.54;95514.38;5111702;28;20168;-65
2021/11/01 16:44:30;;;;;;;2.90;2.70;;;;;;;10.28;97.44;95519.22;5111068;28;20317;-65
2021/11/01 16:46:57;;;;;;;8.30;4.60;;;;;;;10.20;98.52;95522.31;5112267;28;20175;-65
2021/11/01 16:49:23;;;;;;;6.60;4.90;;;;;;;10.23;98.62;95521.84;5103369;28;20271;-65
2021/11/01 16:51:51;;;;;;;6.77;4.23;;;;;;;10.09;99.73;95521.47;5093121;28;20241;-65
2021/11/01 16:54:20;;;;;;;11.17;5.93;;;;;;;10.16;99.26;95518.63;5091844;28;20267;-66
2021/11/01 17:04:50;;;;;;;4.93;3.63;;;;;;;9.80;100.00;95515.03;5095677;28;20270;-62
2021/11/01 17:26:31;;;;;;;5.63;3.77;;;;;;;9.89;99.99;95521.34;5095963;28;20245;-63
2021/11/01 17:36:55;;;;;;;4.47;3.80;;;;;;;9.78;100.00;95523.13;5080800;28;20176;-64
2021/11/01 18:37:59;;;;;;;4.87;4.00;;;;;;;9.59;99.86;95507.03;5088119;28;20200;-65
2021/11/01 18:43:14;;;;;;;5.40;3.30;;;;;;;9.60;98.53;95505.22;5107422;28;20788;-64
2021/11/01 18:51:28;;;;;;;2.70;2.50;;;;;;;9.50;99.95;95490.25;5092659;28;20188;-65
2021/11/01 18:54:18;;;;;;;3.17;2.87;;;;;;;9.42;100.00;95487.28;5112286;28;20222;-65
2021/11/01 18:56:47;;;;;;;4.30;2.60;;;;;;;9.35;99.88;95495.38;5113718;28;20532;-64
2021/11/01 18:59:13;;;;;;;3.57;2.40;;;;;;;9.45;99.12;95492.03;5101070;28;20675;-65
2021/11/01 19:01:48;;;;;;;2.60;2.40;;;;;;;9.18;99.38;95492.88;5092511;28;20648;-65
2021/11/01 19:04:21;;;;;;;2.80;2.50;;;;;;;9.05;100.00;95489.88;5093446;28;20232;-65
2021/11/01 19:06:53;;;;;;;2.07;1.93;;;;;;;8.92;100.00;95496.28;5093689;28;20179;-65
2021/11/01 21:27:03;;;;;;;2.43;2.10;;;;;;;7.57;100.00;95510.06;5094575;28;20216;-66
2021/11/01 21:29:35;;;;;;;3.63;1.67;;;;;;;7.61;100.00;95518.19;5095021;28;20680;-66
2021/11/01 21:32:02;;;;;;;3.03;2.00;;;;;;;7.47;100.00;95520.31;5112954;28;20195;-67
2021/11/01 21:34:35;;;;;;;2.70;2.10;;;;;;;7.32;100.00;95520.88;5097395;28;20212;-67
2021/11/01 21:37:01;;;;;;;2.20;2.10;;;;;;;7.37;100.00;95520.97;5094713;28;20245;-66
2021/11/01 21:39:27;;;;;;;6.97;2.40;;;;;;;7.31;100.00;95518.50;5093107;28;20189;-66
2021/11/01 21:41:53;;;;;;;2.73;2.03;;;;;;;7.30;100.00;95512.50;5095153;28;20180;-66
2021/11/01 21:44:19;;;;;;;4.50;2.43;;;;;;;7.23;100.00;95511.09;5093451;28;20647;-66
2021/11/01 21:46:45;;;;;;;2.20;2.03;;;;;;;7.34;100.00;95505.03;5107513;28;20234;-66
2021/11/01 21:49:10;;;;;;;2.70;2.43;;;;;;;7.25;100.00;95504.63;5093796;28;20188;-67
2021/11/01 21:51:40;;;;;;;2.83;2.40;;;;;;;7.20;100.00;95512.34;5079077;28;20208;-66
2021/11/01 21:54:26;;;;;;;2.03;1.93;;;;;;;7.25;100.00;95499.41;5113703;28;20180;-66
2021/11/01 21:57:01;;;;;;;2.40;2.20;;;;;;;7.32;100.00;95505.25;5092143;28;20646;-66
2021/11/01 21:59:54;;;;;;;2.63;2.33;;;;;;;7.27;100.00;95491.34;5114176;28;20608;-66
2021/11/01 22:19:08;;;;;;;2.27;2.07;;;;;;;7.33;100.00;95477.38;5106566;28;20210;-65
2021/11/01 22:21:29;;;;;;;2.40;2.13;;;;;;;7.20;100.00;95468.06;5105435;28;20227;-65
2021/11/01 22:24:13;;;;;;;2.07;1.97;;;;;;;7.17;100.00;95460.72;5107885;28;20172;-66
2021/11/01 22:39:57;;;;;;;2.67;2.17;;;;;;;7.15;100.00;95451.56;5114274;28;20179;-63
2021/11/01 22:42:45;;;;;;;2.73;2.03;;;;;;;7.06;100.00;95456.38;5098665;28;20564;-63
2021/11/01 22:45:22;;;;;;;3.47;2.57;;;;;;;7.04;100.00;95461.03;5113715;28;20290;-63
2021/11/01 22:58:41;;;;;;;5.13;2.40;;;;;;;7.29;100.00;95458.03;5093640;28;20188;-64
2021/11/01 23:01:21;;;;;;;2.30;2.10;;;;;;;7.47;100.00;95449.94;5089668;28;20207;-64
2021/11/01 23:33:43;;;;;;;2.90;1.83;;;;;;;7.99;100.00;95423.50;5100542;28;20666;-65
2021/11/01 23:36:08;;;;;;;4.33;2.00;;;;;;;7.89;100.00;95411.13;5110928;28;20192;-65
2021/11/01 23:38:34;;;;;;;2.53;1.90;;;;;;;7.81;100.00;95407.09;5113117;28;20270;-65
2021/11/01 23:41:00;;;;;;;2.23;2.03;;;;;;;7.77;100.00;95415.66;5112642;28;20195;-65
2021/11/01 23:43:26;;;;;;;2.17;1.90;;;;;;;7.83;100.00;95406.88;5110958;28;20172;-66
2021/11/01 23:45:51;;;;;;;3.43;2.00;;;;;;;8.05;100.00;95409.47;5100527;28;20240;-65
2021/11/01 23:48:19;;;;;;;3.37;2.23;;;;;;;8.03;100.00;95406.31;5092882;28;20185;-65
2021/11/01 23:50:48;;;;;;;3.63;1.97;;;;;;;8.06;100.00;95404.03;5112654;28;20236;-65
2021/11/01 23:53:22;;;;;;;3.40;1.77;;;;;;;7.97;100.00;95399.47;5094461;28;20181;-65
2021/11/01 23:55:47;;;;;;;3.40;1.57;;;;;;;7.75;100.00;95394.25;5094734;28;20609;-65
2021/11/01 23:58:13;;;;;;;3.20;1.90;;;;;;;7.99;100.00;95395.59;5112617;28;20263;-65
